METAR Data
IDs: Format: Raw Decoded Include TAF

Data at: 1317 UTC 15 Jul 2020

KOGD 151253Z 19004KT 10SM CLR 17/02 A3009 RMK AO2 SLP132 T01670017 $
KOGD 151153Z AUTO 20007KT 10SM CLR 16/01 A3008 RMK AO2 SLP128 T01560011 10250 20156 51007 $
KOGD 151053Z AUTO 16004KT 10SM CLR 17/02 A3007 RMK AO2 SLP125 T01720017 $
KOGD 150953Z AUTO 05004KT 10SM CLR 21/M01 A3006 RMK AO2 SLP116 T02061011 $
KOGD 150853Z AUTO 34007KT 10SM CLR 19/03 A3005 RMK AO2 SLP116 T01940033 51001 $
KOGD 150753Z AUTO 33006KT 10SM CLR 21/00 A3005 RMK AO2 SLP114 T02060000 $
KOGD 150653Z AUTO 03006KT 10SM CLR 22/M04 A3005 RMK AO2 SLP114 T02221039 403110167 $
KOGD 150553Z AUTO 03006KT 10SM CLR 25/M03 A3005 RMK AO2 SLP111 T02501033 10311 20239 51015 $
KOGD 150453Z AUTO 02005KT 10SM 25/M02 A3005 RMK AO2 SLP111 T02501017 $
KOGD 150353Z AUTO 05005KT 10SM CLR 26/M01 A3002 RMK AO2 SLP106 T02611006 $
KOGD 150253Z AUTO 34005KT 10SM CLR 27/00 A3000 RMK AO2 SLP097 T02670000 55004 $
KOGD 150153Z 34006KT 10SM CLR 29/M02 A3000 RMK AO2 SLP096 T02941022 $
KOGD 150053Z 31008KT 31/M03 A3000 RMK AO2 SLP098 T03061028 $
KOGD 142353Z 32008KT 10SM CLR 31/M04 A3002 RMK AO2 SLP106 T03061039 10311 20272 58010
KOGD 142253Z 33008KT 10SM CLR 31/M03 A3003 RMK AO2 SLP109 T03061033
KOGD 142153Z AUTO 35008KT 10SM CLR 30/M04 A3004 RMK AO2 SLP109 T03001039
KOGD 142053Z 28007KT 10SM CLR 29/M07 A3005 RMK AO2 SLP113 T02941072 58009
KOGD 141953Z 34009KT 10SM CLR 29/M08 A3007 RMK AO2 SLP118 T02891078
KOGD 141853Z VRB03KT 10SM CLR 28/M07 A3008 RMK AO2 SLP120 T02831072
KOGD 141753Z 34008KT 10SM CLR 27/M07 A3008 RMK AO2 SLP123 T02721072 10278 20167 51006
KOGD 141653Z 35007KT 10SM CLR 26/M05 A3008 RMK AO2 SLP122 T02561050
KOGD 141553Z 28003KT 10SM CLR 23/02 A3008 RMK AO2 SLP124 T02280017
KOGD 141453Z 31004KT 10SM CLR 23/06 A3006 RMK AO2 SLP114 T02280056 51013
KOGD 141353Z 00000KT 10SM CLR 20/04 A3005 RMK AO2 SLP111 T02000044
KOGD 141253Z 00000KT 10SM CLR 18/04 A3004 RMK AO2 SLP108 T01780044
KOGD 141153Z AUTO 18006KT 10SM CLR 17/04 A3002 RMK AO2 SLP101 T01720044 10244 20167 53014
KOGD 141053Z AUTO 19003KT 10SM CLR 18/04 A3000 RMK AO2 SLP094 T01830039
KOGD 140953Z AUTO 36006KT 10SM CLR 21/00 A2998 RMK AO2 SLP085 T02060000
KOGD 140853Z AUTO 36006KT 10SM CLR 21/06 A2997 RMK AO2 SLP082 T02110061 51008
KOGD 140753Z AUTO 35006KT 10SM CLR 22/06 A2997 RMK AO2 SLP080 T02220061
KOGD 140653Z AUTO 34009KT 10SM CLR 23/06 A2996 RMK AO2 SLP078 T02330061 403330206
KOGD 140553Z AUTO 33007KT 10SM CLR 24/04 A2994 RMK AO2 SLP071 T02390044 10333 20239 51020
KOGD 140453Z AUTO 35007KT 10SM CLR 26/04 A2993 RMK AO2 SLP066 T02560044
KOGD 140353Z AUTO 33009KT 10SM CLR 26/06 A2990 RMK AO2 SLP060 T02610056
KOGD 140253Z AUTO 35003KT 10SM CLR 29/M02 A2988 RMK AO2 SLP050 T02891022 55003
KOGD 140153Z 29003KT 10SM CLR 32/M04 A2987 RMK AO2 SLP044 T03171039